Time;durP1;ratioP1;P1;durP2;ratioP2;P2;SDS_P1;SDS_P2;PMS_P1;PMS_P2;Temp;Humidity;BMP_temperature;BMP_pressure;BME280_temperature;BME280_humidity;BME280_pressure;Samples;Min_cycle;Max_cycle;Signal;HPM_P1;HPM_P2
2023/04/10 00:02:21;;;;;;;0.90;0.90;;;;;;;;;;5092065;28;20179;-84
2023/04/10 00:04:48;;;;;;;0.80;0.80;;;;;;;;;;5091940;28;20273;-83
2023/04/10 00:07:14;;;;;;;0.90;0.90;;;;;;;;;;5092568;28;20166;-83
2023/04/10 00:09:40;;;;;;;0.80;0.80;;;;;;;;;;5091857;28;20187;-84
2023/04/10 00:12:06;;;;;;;0.90;0.90;;;;;;;;;;5092131;28;20197;-84
2023/04/10 00:14:32;;;;;;;0.80;0.80;;;;;;;;;;5091774;28;20198;-83
2023/04/10 00:16:58;;;;;;;0.80;0.80;;;;;;;;;;5092532;28;20521;-84
2023/04/10 00:19:24;;;;;;;0.70;0.70;;;;;;;;;;5074887;28;20174;-83
2023/04/10 00:21:50;;;;;;;0.70;0.70;;;;;;;;;;5092734;28;20175;-84
2023/04/10 00:24:16;;;;;;;0.80;0.80;;;;;;;;;;5091815;28;20321;-84
2023/04/10 00:26:42;;;;;;;0.90;0.90;;;;;;;;;;5091891;28;20266;-82
2023/04/10 00:29:08;;;;;;;0.80;0.80;;;;;;;;;;5092814;28;20285;-83
2023/04/10 00:31:34;;;;;;;0.90;0.90;;;;;;;;;;5092247;28;20175;-83
2023/04/10 00:34:00;;;;;;;0.90;0.90;;;;;;;;;;5091390;28;20198;-82
2023/04/10 00:36:26;;;;;;;0.90;0.90;;;;;;;;;;5088313;28;20182;-83
2023/04/10 00:38:52;;;;;;;1.00;1.00;;;;;;;;;;5084475;28;20250;-84
2023/04/10 00:41:18;;;;;;;0.80;0.80;;;;;;;;;;5084823;28;20194;-83
2023/04/10 00:43:44;;;;;;;0.80;0.80;;;;;;;;;;5084121;28;20228;-82
2023/04/10 00:46:10;;;;;;;0.77;0.77;;;;;;;;;;5085220;28;20581;-83
2023/04/10 00:48:37;;;;;;;0.80;0.80;;;;;;;;;;5085626;28;20179;-84
2023/04/10 00:51:04;;;;;;;0.80;0.80;;;;;;;;;;5086144;28;20639;-85
2023/04/10 00:53:30;;;;;;;0.90;0.90;;;;;;;;;;5085738;28;20210;-84
2023/04/10 00:55:56;;;;;;;0.80;0.80;;;;;;;;;;5086523;28;20186;-85
2023/04/10 00:58:22;;;;;;;0.80;0.80;;;;;;;;;;5087270;28;20178;-84
2023/04/10 01:00:48;;;;;;;0.80;0.80;;;;;;;;;;5086785;28;20179;-85
2023/04/10 01:03:15;;;;;;;0.70;0.70;;;;;;;;;;5095848;28;20183;-82
2023/04/10 01:05:44;;;;;;;0.80;0.80;;;;;;;;;;5098982;28;20264;-83
2023/04/10 01:08:28;;;;;;;0.90;0.90;;;;;;;;;;5090470;28;20239;-85
2023/04/10 01:10:54;;;;;;;0.80;0.80;;;;;;;;;;5080053;28;20174;-86
2023/04/10 01:13:41;;;;;;;0.80;0.80;;;;;;;;;;5079034;28;20198;-85
2023/04/10 01:16:10;;;;;;;0.80;0.80;;;;;;;;;;5079303;28;20629;-87
2023/04/10 01:19:08;;;;;;;0.80;0.80;;;;;;;;;;5079711;28;20174;-87
2023/04/10 01:21:35;;;;;;;0.90;0.90;;;;;;;;;;5029344;28;20562;-87
2023/04/10 01:24:21;;;;;;;0.80;0.80;;;;;;;;;;5078854;28;20581;-86
2023/04/10 01:26:54;;;;;;;0.87;0.87;;;;;;;;;;5079251;28;20637;-88
2023/04/10 01:29:21;;;;;;;0.77;0.77;;;;;;;;;;5060682;28;20228;-87
2023/04/10 01:31:49;;;;;;;0.90;0.90;;;;;;;;;;5079589;28;20170;-87
2023/04/10 01:34:16;;;;;;;0.80;0.80;;;;;;;;;;5080038;28;20545;-87
2023/04/10 01:36:48;;;;;;;0.90;0.90;;;;;;;;;;5079653;28;20200;-87
2023/04/10 01:39:16;;;;;;;0.80;0.80;;;;;;;;;;5079603;28;20246;-86
2023/04/10 01:41:43;;;;;;;0.90;0.90;;;;;;;;;;5079534;28;20178;-87
2023/04/10 01:44:10;;;;;;;0.80;0.80;;;;;;;;;;5079010;28;20735;-87
2023/04/10 01:46:38;;;;;;;0.80;0.80;;;;;;;;;;5079553;28;20218;-87
2023/04/10 01:49:05;;;;;;;0.80;0.80;;;;;;;;;;5079494;28;20260;-87
2023/04/10 01:51:32;;;;;;;0.80;0.80;;;;;;;;;;5079669;28;20198;-86
2023/04/10 01:53:59;;;;;;;0.80;0.80;;;;;;;;;;5079137;28;20544;-86
2023/04/10 01:56:25;;;;;;;0.80;0.80;;;;;;;;;;5079441;28;20170;-87
2023/04/10 01:58:51;;;;;;;0.80;0.80;;;;;;;;;;5079638;28;20171;-87
2023/04/10 02:01:21;;;;;;;0.90;0.90;;;;;;;;;;5079814;28;20178;-87
2023/04/10 02:03:47;;;;;;;0.77;0.77;;;;;;;;;;5079134;28;20194;-86
2023/04/10 02:06:32;;;;;;;0.90;0.90;;;;;;;;;;5080360;28;20180;-88
2023/04/10 02:08:57;;;;;;;0.80;0.80;;;;;;;;;;5080507;28;20182;-88
2023/04/10 02:12:02;;;;;;;0.90;0.90;;;;;;;;;;5080192;28;20206;-87
2023/04/10 02:14:30;;;;;;;0.80;0.80;;;;;;;;;;5017005;28;20789;-86
2023/04/10 02:16:56;;;;;;;0.80;0.80;;;;;;;;;;5018157;28;20204;-86
2023/04/10 02:19:23;;;;;;;0.90;0.90;;;;;;;;;;5049114;28;20248;-86
2023/04/10 02:21:50;;;;;;;0.83;0.83;;;;;;;;;;5082053;28;20290;-87
2023/04/10 02:24:16;;;;;;;0.80;0.80;;;;;;;;;;5081372;28;20217;-87
2023/04/10 02:26:49;;;;;;;0.80;0.80;;;;;;;;;;5090323;28;20190;-88
2023/04/10 02:29:16;;;;;;;0.80;0.80;;;;;;;;;;5096687;28;20179;-89
2023/04/10 02:31:42;;;;;;;0.90;0.90;;;;;;;;;;5091012;28;20248;-87
2023/04/10 02:34:08;;;;;;;0.90;0.90;;;;;;;;;;5077861;28;20194;-85
2023/04/10 02:36:37;;;;;;;0.77;0.77;;;;;;;;;;5078365;28;20171;-86
2023/04/10 02:39:04;;;;;;;0.90;0.90;;;;;;;;;;5079401;28;20182;-87
2023/04/10 02:41:30;;;;;;;0.80;0.80;;;;;;;;;;5078357;28;20179;-87
2023/04/10 02:43:56;;;;;;;0.80;0.80;;;;;;;;;;5079270;28;20633;-88
2023/04/10 02:46:22;;;;;;;0.90;0.90;;;;;;;;;;5083539;28;20174;-87
2023/04/10 02:48:48;;;;;;;0.77;0.77;;;;;;;;;;5091475;28;20178;-86
2023/04/10 02:51:14;;;;;;;0.90;0.90;;;;;;;;;;5094468;28;20183;-86
2023/04/10 02:53:40;;;;;;;0.90;0.90;;;;;;;;;;5094256;28;20201;-88
2023/04/10 02:56:07;;;;;;;0.83;0.83;;;;;;;;;;5089180;28;20180;-86
2023/04/10 02:58:34;;;;;;;0.80;0.80;;;;;;;;;;5083699;28;20189;-89
2023/04/10 03:01:00;;;;;;;0.80;0.80;;;;;;;;;;5097257;28;20178;-88
2023/04/10 03:03:27;;;;;;;0.80;0.80;;;;;;;;;;5097155;28;20194;-88
2023/04/10 03:05:53;;;;;;;0.90;0.90;;;;;;;;;;5097357;28;20235;-88
2023/04/10 03:08:19;;;;;;;0.80;0.80;;;;;;;;;;5096785;28;20200;-86
2023/04/10 03:10:49;;;;;;;0.80;0.80;;;;;;;;;;5076641;28;20174;-86
2023/04/10 03:13:15;;;;;;;0.80;0.80;;;;;;;;;;5075818;28;20197;-85
2023/04/10 03:15:41;;;;;;;0.80;0.80;;;;;;;;;;5076471;28;20253;-86
2023/04/10 03:18:08;;;;;;;0.90;0.90;;;;;;;;;;5075521;28;20271;-86
2023/04/10 03:20:36;;;;;;;0.80;0.80;;;;;;;;;;5075943;28;20232;-88
2023/04/10 03:23:02;;;;;;;0.80;0.80;;;;;;;;;;5075115;28;20202;-86
2023/04/10 03:25:30;;;;;;;0.87;0.87;;;;;;;;;;5076059;28;20228;-85
2023/04/10 03:27:56;;;;;;;0.80;0.80;;;;;;;;;;5075405;28;20204;-85
2023/04/10 03:30:22;;;;;;;0.90;0.90;;;;;;;;;;5075813;28;20205;-86
2023/04/10 03:32:48;;;;;;;0.80;0.80;;;;;;;;;;5075260;28;20569;-85
2023/04/10 03:35:14;;;;;;;0.70;0.70;;;;;;;;;;5076159;28;20174;-85
2023/04/10 03:37:41;;;;;;;0.80;0.80;;;;;;;;;;5075883;28;20187;-85
2023/04/10 03:40:07;;;;;;;0.80;0.80;;;;;;;;;;5075680;28;20186;-86
2023/04/10 03:42:34;;;;;;;0.80;0.80;;;;;;;;;;5057306;28;20182;-86
2023/04/10 03:45:03;;;;;;;0.87;0.87;;;;;;;;;;5075689;28;20237;-86
2023/04/10 03:47:29;;;;;;;0.80;0.80;;;;;;;;;;5076523;28;20189;-86
2023/04/10 03:49:55;;;;;;;0.87;0.87;;;;;;;;;;5076214;28;20182;-86
2023/04/10 03:52:21;;;;;;;0.90;0.90;;;;;;;;;;5076154;28;20179;-88
2023/04/10 03:54:47;;;;;;;0.80;0.80;;;;;;;;;;5076039;28;20194;-88
2023/04/10 03:57:13;;;;;;;0.80;0.80;;;;;;;;;;5076162;28;20174;-85
2023/04/10 03:59:39;;;;;;;0.80;0.80;;;;;;;;;;5076458;28;20255;-86
2023/04/10 04:02:06;;;;;;;0.80;0.80;;;;;;;;;;5076669;28;20629;-87
2023/04/10 04:04:32;;;;;;;0.80;0.80;;;;;;;;;;5076082;28;20302;-86
2023/04/10 04:06:58;;;;;;;0.87;0.87;;;;;;;;;;5076221;28;20206;-86
2023/04/10 04:09:24;;;;;;;0.70;0.70;;;;;;;;;;5075969;28;20174;-86
2023/04/10 04:11:50;;;;;;;0.90;0.90;;;;;;;;;;5076377;28;20209;-87
2023/04/10 04:14:16;;;;;;;0.77;0.77;;;;;;;;;;5076209;28;20199;-86
2023/04/10 04:16:42;;;;;;;0.80;0.80;;;;;;;;;;5076849;28;20234;-87
2023/04/10 04:19:08;;;;;;;0.70;0.70;;;;;;;;;;5077545;28;20181;-86
2023/04/10 04:21:34;;;;;;;0.80;0.80;;;;;;;;;;5076813;28;20171;-86
2023/04/10 04:24:00;;;;;;;0.80;0.80;;;;;;;;;;5076757;28;20213;-86
2023/04/10 04:26:26;;;;;;;0.80;0.80;;;;;;;;;;5077398;28;20171;-86
2023/04/10 04:28:52;;;;;;;0.70;0.70;;;;;;;;;;5076968;28;20852;-87
2023/04/10 04:31:18;;;;;;;0.80;0.80;;;;;;;;;;5076400;28;20178;-85
2023/04/10 04:33:44;;;;;;;0.80;0.80;;;;;;;;;;5075854;28;20213;-87
2023/04/10 04:36:10;;;;;;;0.83;0.83;;;;;;;;;;5058051;28;20227;-88
2023/04/10 04:38:36;;;;;;;0.80;0.80;;;;;;;;;;5077226;28;20692;-86
2023/04/10 04:41:02;;;;;;;0.87;0.87;;;;;;;;;;5080467;28;20198;-87
2023/04/10 04:43:28;;;;;;;0.87;0.87;;;;;;;;;;5083647;28;20210;-88
2023/04/10 04:45:54;;;;;;;0.80;0.80;;;;;;;;;;5099875;28;20622;-87
2023/04/10 04:48:20;;;;;;;0.80;0.80;;;;;;;;;;5099684;28;20166;-87
2023/04/10 04:50:46;;;;;;;0.80;0.80;;;;;;;;;;5081333;28;20183;-85
2023/04/10 04:53:12;;;;;;;0.90;0.90;;;;;;;;;;5078433;28;20692;-85
2023/04/10 04:55:38;;;;;;;0.80;0.80;;;;;;;;;;5077961;28;20287;-85
2023/04/10 04:58:04;;;;;;;0.70;0.70;;;;;;;;;;5078872;28;20657;-86
2023/04/10 05:00:30;;;;;;;0.90;0.90;;;;;;;;;;5078131;28;20171;-86
2023/04/10 05:02:56;;;;;;;0.73;0.73;;;;;;;;;;5078572;28;20167;-85
2023/04/10 05:05:22;;;;;;;0.80;0.80;;;;;;;;;;5078161;28;20276;-85
2023/04/10 05:07:48;;;;;;;0.80;0.80;;;;;;;;;;5077927;28;20178;-86
2023/04/10 05:10:14;;;;;;;0.80;0.80;;;;;;;;;;5077935;28;20181;-85
2023/04/10 05:12:42;;;;;;;0.80;0.80;;;;;;;;;;5077799;28;20672;-85
2023/04/10 05:15:08;;;;;;;0.80;0.80;;;;;;;;;;5082406;28;20186;-85
2023/04/10 05:17:34;;;;;;;0.70;0.70;;;;;;;;;;5084533;28;20232;-85
2023/04/10 05:20:00;;;;;;;0.77;0.77;;;;;;;;;;5084491;28;20197;-86
2023/04/10 05:22:27;;;;;;;0.80;0.80;;;;;;;;;;5079787;28;20186;-86
2023/04/10 05:24:54;;;;;;;0.87;0.87;;;;;;;;;;5077975;28;20218;-86
2023/04/10 05:27:20;;;;;;;0.80;0.80;;;;;;;;;;5078602;28;20181;-86
2023/04/10 05:29:46;;;;;;;0.80;0.80;;;;;;;;;;5079200;28;20201;-87
2023/04/10 05:32:13;;;;;;;0.87;0.87;;;;;;;;;;5078060;28;20174;-87
2023/04/10 05:34:39;;;;;;;0.77;0.77;;;;;;;;;;5077708;28;20665;-86
2023/04/10 05:37:05;;;;;;;0.80;0.80;;;;;;;;;;5077885;28;20202;-86
2023/04/10 05:39:31;;;;;;;0.90;0.90;;;;;;;;;;5078160;28;20637;-84
2023/04/10 05:41:57;;;;;;;0.67;0.67;;;;;;;;;;5078535;28;20240;-85
2023/04/10 05:44:23;;;;;;;0.90;0.90;;;;;;;;;;5077590;28;20218;-84
2023/04/10 05:46:49;;;;;;;0.80;0.80;;;;;;;;;;5078429;28;20703;-84
2023/04/10 05:49:15;;;;;;;0.90;0.90;;;;;;;;;;5089435;28;20159;-82
2023/04/10 05:51:41;;;;;;;0.80;0.80;;;;;;;;;;5092993;28;20182;-84
2023/04/10 05:54:07;;;;;;;0.80;0.80;;;;;;;;;;5078750;28;20216;-85
2023/04/10 05:56:33;;;;;;;0.80;0.80;;;;;;;;;;5080066;28;20174;-84
2023/04/10 05:58:59;;;;;;;0.80;0.80;;;;;;;;;;5079049;28;20780;-84
2023/04/10 06:01:25;;;;;;;0.70;0.70;;;;;;;;;;5079665;28;20200;-84
2023/04/10 06:03:51;;;;;;;0.80;0.80;;;;;;;;;;5079425;28;20198;-83
2023/04/10 06:06:18;;;;;;;0.70;0.70;;;;;;;;;;5079419;28;20221;-85
2023/04/10 06:08:44;;;;;;;0.77;0.77;;;;;;;;;;5080567;28;20170;-84
2023/04/10 06:11:10;;;;;;;0.70;0.70;;;;;;;;;;5081378;28;20178;-85
2023/04/10 06:13:36;;;;;;;0.70;0.70;;;;;;;;;;5081223;28;20220;-85
2023/04/10 06:16:02;;;;;;;0.70;0.70;;;;;;;;;;5081687;28;20178;-85
2023/04/10 06:18:28;;;;;;;0.80;0.80;;;;;;;;;;5080366;28;20182;-84
2023/04/10 06:20:56;;;;;;;0.70;0.70;;;;;;;;;;5079934;28;20175;-83
2023/04/10 06:23:22;;;;;;;0.60;0.60;;;;;;;;;;5079350;28;20194;-84
2023/04/10 06:25:48;;;;;;;0.73;0.73;;;;;;;;;;5077660;28;20634;-83
2023/04/10 06:28:14;;;;;;;0.70;0.70;;;;;;;;;;5061289;28;20233;-83
2023/04/10 06:30:40;;;;;;;0.70;0.70;;;;;;;;;;5061239;28;20209;-84
2023/04/10 06:33:06;;;;;;;0.60;0.60;;;;;;;;;;5059039;28;20247;-84
2023/04/10 06:35:32;;;;;;;0.70;0.70;;;;;;;;;;5052590;28;20187;-84
2023/04/10 06:37:58;;;;;;;0.60;0.60;;;;;;;;;;5058861;28;20263;-83
2023/04/10 06:40:24;;;;;;;0.70;0.70;;;;;;;;;;5060355;28;20723;-84
2023/04/10 06:42:50;;;;;;;0.70;0.70;;;;;;;;;;5060460;28;20187;-84
2023/04/10 06:45:16;;;;;;;0.70;0.70;;;;;;;;;;5070111;28;20234;-84
2023/04/10 06:47:42;;;;;;;0.60;0.60;;;;;;;;;;5069602;28;20230;-82
2023/04/10 06:50:08;;;;;;;0.73;0.73;;;;;;;;;;5070168;28;20171;-83
2023/04/10 06:52:34;;;;;;;0.60;0.60;;;;;;;;;;5060470;28;20253;-84
2023/04/10 06:55:00;;;;;;;0.70;0.70;;;;;;;;;;5058964;28;20606;-84
2023/04/10 06:57:27;;;;;;;0.57;0.57;;;;;;;;;;5058206;28;20186;-84
2023/04/10 06:59:53;;;;;;;0.60;0.60;;;;;;;;;;5059011;28;20244;-84
2023/04/10 07:02:20;;;;;;;0.70;0.70;;;;;;;;;;5058020;28;20594;-83
2023/04/10 07:04:46;;;;;;;0.50;0.50;;;;;;;;;;5058665;28;20217;-83
2023/04/10 07:07:12;;;;;;;0.63;0.63;;;;;;;;;;5055554;28;20594;-84
2023/04/10 07:09:38;;;;;;;0.70;0.70;;;;;;;;;;5050305;28;20190;-84
2023/04/10 07:12:04;;;;;;;0.67;0.67;;;;;;;;;;5059913;28;20183;-84
2023/04/10 07:14:33;;;;;;;0.70;0.70;;;;;;;;;;5059392;28;20237;-83
2023/04/10 07:16:59;;;;;;;0.70;0.70;;;;;;;;;;5060365;28;20187;-82
2023/04/10 07:19:25;;;;;;;0.67;0.67;;;;;;;;;;5060633;28;20277;-84
2023/04/10 07:21:51;;;;;;;0.60;0.60;;;;;;;;;;5060301;28;20186;-82
2023/04/10 07:24:17;;;;;;;0.60;0.60;;;;;;;;;;5058940;28;20218;-83
2023/04/10 07:26:44;;;;;;;0.50;0.50;;;;;;;;;;5060017;28;20229;-84
2023/04/10 07:29:10;;;;;;;0.40;0.40;;;;;;;;;;5059156;28;20554;-83
2023/04/10 07:31:36;;;;;;;0.30;0.30;;;;;;;;;;5059489;28;20229;-84
2023/04/10 07:34:03;;;;;;;0.40;0.40;;;;;;;;;;5059130;28;20191;-82
2023/04/10 07:36:29;;;;;;;0.40;0.40;;;;;;;;;;5059835;28;20766;-84
2023/04/10 07:38:55;;;;;;;0.50;0.50;;;;;;;;;;5059288;28;20265;-84
2023/04/10 07:41:22;;;;;;;0.40;0.40;;;;;;;;;;5059356;28;20206;-83
2023/04/10 07:43:49;;;;;;;0.40;0.40;;;;;;;;;;5059158;28;20199;-84
2023/04/10 07:46:15;;;;;;;0.30;0.30;;;;;;;;;;5060820;28;20585;-85
2023/04/10 07:48:41;;;;;;;0.30;0.30;;;;;;;;;;5060492;28;20194;-84
2023/04/10 07:51:08;;;;;;;0.30;0.30;;;;;;;;;;5060897;28;20552;-84
2023/04/10 07:53:37;;;;;;;0.30;0.30;;;;;;;;;;5059481;28;20199;-84
2023/04/10 07:56:04;;;;;;;0.37;0.37;;;;;;;;;;5058893;28;20233;-83
2023/04/10 07:58:30;;;;;;;0.30;0.30;;;;;;;;;;5057720;28;20175;-85
2023/04/10 08:00:57;;;;;;;0.33;0.33;;;;;;;;;;5058142;28;20195;-84
2023/04/10 08:03:23;;;;;;;0.40;0.40;;;;;;;;;;5057443;28;20202;-84
2023/04/10 08:05:49;;;;;;;0.40;0.40;;;;;;;;;;5057982;28;20250;-82
2023/04/10 08:08:15;;;;;;;0.50;0.50;;;;;;;;;;5057776;28;20210;-83
2023/04/10 08:10:41;;;;;;;0.40;0.40;;;;;;;;;;5057366;28;20553;-84
2023/04/10 08:13:07;;;;;;;0.40;0.40;;;;;;;;;;5056701;28;20199;-86
2023/04/10 08:15:33;;;;;;;0.30;0.30;;;;;;;;;;5057450;28;20179;-86
2023/04/10 08:17:59;;;;;;;0.40;0.40;;;;;;;;;;5059858;28;20210;-84
2023/04/10 08:20:25;;;;;;;0.30;0.30;;;;;;;;;;5059162;28;20650;-86
2023/04/10 08:22:51;;;;;;;0.40;0.40;;;;;;;;;;5058202;28;20167;-85
2023/04/10 08:25:17;;;;;;;0.40;0.40;;;;;;;;;;5059507;28;20290;-85
2023/04/10 08:27:43;;;;;;;0.40;0.40;;;;;;;;;;5058706;28;20175;-87
2023/04/10 08:30:09;;;;;;;0.40;0.40;;;;;;;;;;5058430;28;20203;-85
2023/04/10 08:32:35;;;;;;;0.40;0.40;;;;;;;;;;5059683;28;20634;-85
2023/04/10 08:35:01;;;;;;;0.30;0.30;;;;;;;;;;5058959;28;20203;-84
2023/04/10 08:37:27;;;;;;;0.30;0.30;;;;;;;;;;5059564;28;20266;-86
2023/04/10 08:39:53;;;;;;;0.40;0.40;;;;;;;;;;5060304;28;20163;-87
2023/04/10 08:42:19;;;;;;;0.30;0.30;;;;;;;;;;5079435;28;20199;-89
2023/04/10 08:44:48;;;;;;;0.37;0.37;;;;;;;;;;5075213;28;20728;-85
2023/04/10 08:47:14;;;;;;;0.30;0.30;;;;;;;;;;5051363;28;20206;-86
2023/04/10 08:49:44;;;;;;;0.37;0.37;;;;;;;;;;5060606;28;20205;-85
2023/04/10 08:52:15;;;;;;;0.37;0.37;;;;;;;;;;5060697;28;20183;-86
2023/04/10 08:54:41;;;;;;;0.40;0.40;;;;;;;;;;5059108;28;20652;-86
2023/04/10 08:57:08;;;;;;;0.40;0.40;;;;;;;;;;5061333;28;20245;-87
2023/04/10 08:59:34;;;;;;;0.40;0.40;;;;;;;;;;5062075;28;20721;-87
2023/04/10 09:02:00;;;;;;;0.40;0.40;;;;;;;;;;5059300;28;20225;-86
2023/04/10 09:04:26;;;;;;;0.30;0.30;;;;;;;;;;5060898;28;20603;-86
2023/04/10 09:06:52;;;;;;;0.40;0.40;;;;;;;;;;5061478;28;20242;-85
2023/04/10 09:09:19;;;;;;;0.40;0.40;;;;;;;;;;5061808;28;20194;-85
2023/04/10 09:11:54;;;;;;;0.40;0.40;;;;;;;;;;5059193;28;20186;-84
2023/04/10 09:14:24;;;;;;;0.40;0.40;;;;;;;;;;5077428;28;20276;-82
2023/04/10 09:16:50;;;;;;;0.30;0.30;;;;;;;;;;5067733;28;20182;-86
2023/04/10 09:19:33;;;;;;;0.30;0.30;;;;;;;;;;5078723;28;20213;-85
2023/04/10 09:21:59;;;;;;;0.30;0.30;;;;;;;;;;5057193;28;20199;-86
2023/04/10 09:24:26;;;;;;;0.30;0.30;;;;;;;;;;5079217;28;20246;-85
2023/04/10 09:26:52;;;;;;;0.30;0.30;;;;;;;;;;5069775;28;20171;-85
2023/04/10 09:29:19;;;;;;;0.40;0.40;;;;;;;;;;5074035;28;20179;-85
2023/04/10 09:31:45;;;;;;;0.30;0.30;;;;;;;;;;5063782;28;20225;-85
2023/04/10 09:34:13;;;;;;;0.37;0.37;;;;;;;;;;5091249;28;20194;-85
2023/04/10 09:36:40;;;;;;;0.30;0.30;;;;;;;;;;5066025;28;20182;-85
2023/04/10 09:39:07;;;;;;;0.40;0.40;;;;;;;;;;5072045;28;20265;-85
2023/04/10 09:41:33;;;;;;;0.40;0.40;;;;;;;;;;5069538;28;20179;-86
2023/04/10 09:44:06;;;;;;;0.40;0.40;;;;;;;;;;5074322;28;20213;-85
2023/04/10 09:46:32;;;;;;;0.40;0.40;;;;;;;;;;5047470;28;20171;-86
2023/04/10 09:49:03;;;;;;;0.30;0.30;;;;;;;;;;5075473;28;20530;-86
2023/04/10 09:51:35;;;;;;;0.30;0.30;;;;;;;;;;5060148;28;20176;-86
2023/04/10 09:54:02;;;;;;;0.30;0.30;;;;;;;;;;5043093;28;20202;-87
2023/04/10 09:56:29;;;;;;;0.30;0.30;;;;;;;;;;5075386;28;20578;-86
2023/04/10 09:58:58;;;;;;;0.40;0.40;;;;;;;;;;5063480;28;20557;-86
2023/04/10 10:01:25;;;;;;;0.30;0.30;;;;;;;;;;5068158;28;20183;-85
2023/04/10 10:03:53;;;;;;;0.30;0.30;;;;;;;;;;5060090;28;20668;-85
2023/04/10 10:06:19;;;;;;;0.30;0.30;;;;;;;;;;5049051;28;20180;-85
2023/04/10 10:08:45;;;;;;;0.30;0.30;;;;;;;;;;5071889;28;20176;-86
2023/04/10 10:11:13;;;;;;;0.30;0.30;;;;;;;;;;5058734;28;20275;-87
2023/04/10 10:13:47;;;;;;;0.30;0.30;;;;;;;;;;5056820;28;20210;-85
2023/04/10 10:16:16;;;;;;;0.30;0.30;;;;;;;;;;5074112;28;20174;-85
2023/04/10 10:18:48;;;;;;;0.40;0.40;;;;;;;;;;5074952;28;20573;-86
2023/04/10 10:21:15;;;;;;;0.50;0.50;;;;;;;;;;5068592;28;20229;-85
2023/04/10 10:23:43;;;;;;;0.40;0.40;;;;;;;;;;5065084;28;20194;-85
2023/04/10 10:26:10;;;;;;;0.30;0.30;;;;;;;;;;5049106;28;20219;-86
2023/04/10 10:28:36;;;;;;;0.37;0.37;;;;;;;;;;5048635;28;20274;-86
2023/04/10 10:31:03;;;;;;;0.30;0.30;;;;;;;;;;5056652;28;20264;-87
2023/04/10 10:33:29;;;;;;;0.40;0.40;;;;;;;;;;5047007;28;20206;-86
2023/04/10 10:36:03;;;;;;;0.30;0.30;;;;;;;;;;5075141;28;20189;-85
2023/04/10 10:38:29;;;;;;;0.30;0.30;;;;;;;;;;5060784;28;20183;-86
2023/04/10 10:41:06;;;;;;;0.43;0.43;;;;;;;;;;5071242;28;20174;-86
2023/04/10 10:43:37;;;;;;;0.30;0.30;;;;;;;;;;5070802;28;20198;-85
2023/04/10 10:46:03;;;;;;;0.30;0.30;;;;;;;;;;5063275;28;20240;-86
2023/04/10 10:48:29;;;;;;;0.30;0.30;;;;;;;;;;5070928;28;20198;-85
2023/04/10 10:50:57;;;;;;;0.30;0.30;;;;;;;;;;5069416;28;20187;-87
2023/04/10 10:53:39;;;;;;;0.40;0.40;;;;;;;;;;5057353;28;20204;-86
2023/04/10 10:56:25;;;;;;;0.30;0.30;;;;;;;;;;5058263;28;20233;-85
2023/04/10 10:58:57;;;;;;;0.30;0.30;;;;;;;;;;5071117;28;20175;-86
2023/04/10 11:01:24;;;;;;;0.30;0.30;;;;;;;;;;5068407;28;20187;-85
2023/04/10 11:03:50;;;;;;;0.30;0.30;;;;;;;;;;5083287;28;20203;-86
2023/04/10 11:06:39;;;;;;;0.40;0.40;;;;;;;;;;5079456;28;20175;-85
2023/04/10 11:09:05;;;;;;;0.50;0.50;;;;;;;;;;5096189;28;20166;-84
2023/04/10 11:11:32;;;;;;;0.40;0.40;;;;;;;;;;5084904;28;20186;-84
2023/04/10 11:13:58;;;;;;;0.30;0.30;;;;;;;;;;5071230;28;20195;-84
2023/04/10 11:16:42;;;;;;;0.40;0.40;;;;;;;;;;5064402;28;20182;-86
2023/04/10 11:19:11;;;;;;;0.40;0.40;;;;;;;;;;5080558;28;20224;-85
2023/04/10 11:21:58;;;;;;;0.40;0.40;;;;;;;;;;5079802;28;20238;-86
2023/04/10 11:24:24;;;;;;;0.40;0.40;;;;;;;;;;5063753;28;20211;-85
2023/04/10 11:26:50;;;;;;;0.40;0.40;;;;;;;;;;5072906;28;20661;-86
2023/04/10 11:29:16;;;;;;;0.30;0.30;;;;;;;;;;5058650;28;20271;-84
2023/04/10 11:31:43;;;;;;;0.40;0.40;;;;;;;;;;5072509;28;20170;-84
2023/04/10 11:34:09;;;;;;;0.40;0.40;;;;;;;;;;5062878;28;20280;-88
2023/04/10 11:36:40;;;;;;;0.40;0.40;;;;;;;;;;5064993;28;20163;-86
2023/04/10 11:39:12;;;;;;;0.30;0.30;;;;;;;;;;5070197;28;20225;-87
2023/04/10 11:41:42;;;;;;;0.30;0.30;;;;;;;;;;5070815;28;20174;-87
2023/04/10 11:44:09;;;;;;;0.40;0.40;;;;;;;;;;5060040;28;20198;-86
2023/04/10 11:46:39;;;;;;;0.33;0.33;;;;;;;;;;5046095;28;20173;-86
2023/04/10 11:49:06;;;;;;;0.40;0.40;;;;;;;;;;5070747;28;20221;-85
2023/04/10 11:51:32;;;;;;;0.40;0.40;;;;;;;;;;5046202;28;20293;-86
2023/04/10 11:54:12;;;;;;;0.37;0.37;;;;;;;;;;5061243;28;20569;-86
2023/04/10 11:56:39;;;;;;;0.30;0.30;;;;;;;;;;5058795;28;20175;-86
2023/04/10 11:59:09;;;;;;;0.30;0.30;;;;;;;;;;5072556;28;20170;-86
2023/04/10 12:01:36;;;;;;;0.40;0.40;;;;;;;;;;5071556;28;20218;-87
2023/04/10 12:04:02;;;;;;;0.40;0.40;;;;;;;;;;5078381;28;20201;-86
2023/04/10 12:06:28;;;;;;;0.30;0.30;;;;;;;;;;5067512;28;20228;-86
2023/04/10 12:08:54;;;;;;;0.40;0.40;;;;;;;;;;5059783;28;20605;-85
2023/04/10 12:11:21;;;;;;;0.33;0.33;;;;;;;;;;5074969;28;20241;-85
2023/04/10 12:13:47;;;;;;;0.40;0.40;;;;;;;;;;5072071;28;20213;-85
2023/04/10 12:16:14;;;;;;;0.30;0.30;;;;;;;;;;5064531;28;20191;-85
2023/04/10 12:18:40;;;;;;;0.40;0.40;;;;;;;;;;5067426;28;20228;-85
2023/04/10 12:21:06;;;;;;;0.30;0.30;;;;;;;;;;5075044;28;20179;-86
2023/04/10 12:23:33;;;;;;;0.50;0.50;;;;;;;;;;5073767;28;20222;-86
2023/04/10 12:26:10;;;;;;;0.50;0.50;;;;;;;;;;5064797;28;20225;-86
2023/04/10 12:28:37;;;;;;;0.40;0.40;;;;;;;;;;5041953;28;20211;-86
2023/04/10 12:31:03;;;;;;;0.40;0.40;;;;;;;;;;5057538;28;20266;-87
2023/04/10 12:33:29;;;;;;;0.40;0.40;;;;;;;;;;5081132;28;20213;-85
2023/04/10 12:35:55;;;;;;;0.30;0.30;;;;;;;;;;5099853;28;20151;-85
2023/04/10 12:38:37;;;;;;;0.30;0.30;;;;;;;;;;5100136;28;20175;-85
2023/04/10 12:41:03;;;;;;;0.40;0.40;;;;;;;;;;5090604;28;20799;-87
2023/04/10 12:43:35;;;;;;;0.47;0.47;;;;;;;;;;5082362;28;20194;-87
2023/04/10 12:46:01;;;;;;;0.50;0.50;;;;;;;;;;5080852;28;20206;-87
2023/04/10 12:48:27;;;;;;;0.50;0.50;;;;;;;;;;5081060;28;20175;-86
2023/04/10 12:50:53;;;;;;;0.50;0.50;;;;;;;;;;5079357;28;20202;-87
2023/04/10 12:53:20;;;;;;;0.43;0.43;;;;;;;;;;5081456;28;20198;-87
2023/04/10 12:55:59;;;;;;;0.40;0.40;;;;;;;;;;5081985;28;20278;-85
2023/04/10 12:58:30;;;;;;;0.40;0.40;;;;;;;;;;5081334;28;20196;-86
2023/04/10 13:00:56;;;;;;;0.30;0.30;;;;;;;;;;5079992;28;20185;-85
2023/04/10 13:03:22;;;;;;;0.40;0.40;;;;;;;;;;5081897;28;20194;-85
2023/04/10 13:05:48;;;;;;;0.30;0.30;;;;;;;;;;5082098;28;20218;-86
2023/04/10 13:08:15;;;;;;;0.40;0.40;;;;;;;;;;5083512;28;20598;-85
2023/04/10 13:10:42;;;;;;;0.40;0.40;;;;;;;;;;5082852;28;20254;-85
2023/04/10 13:13:10;;;;;;;0.40;0.40;;;;;;;;;;5082241;28;20206;-87
2023/04/10 13:15:37;;;;;;;0.40;0.40;;;;;;;;;;5083770;28;20242;-87
2023/04/10 13:18:07;;;;;;;0.50;0.50;;;;;;;;;;5085861;28;20189;-87
2023/04/10 13:20:36;;;;;;;0.30;0.30;;;;;;;;;;5083899;28;20251;-87
2023/04/10 13:23:03;;;;;;;0.30;0.30;;;;;;;;;;5083258;28;20603;-87
2023/04/10 13:25:33;;;;;;;0.40;0.40;;;;;;;;;;5084171;28;20214;-85
2023/04/10 13:28:00;;;;;;;0.40;0.40;;;;;;;;;;5084281;28;20174;-86
2023/04/10 13:30:26;;;;;;;0.40;0.40;;;;;;;;;;5083083;28;20187;-86
2023/04/10 13:32:52;;;;;;;0.40;0.40;;;;;;;;;;5081938;28;20637;-86
2023/04/10 13:35:18;;;;;;;0.40;0.40;;;;;;;;;;5080333;28;20224;-86
2023/04/10 13:37:44;;;;;;;0.50;0.50;;;;;;;;;;5080681;28;20175;-86
2023/04/10 13:40:11;;;;;;;0.30;0.30;;;;;;;;;;5082182;28;20179;-86
2023/04/10 13:42:37;;;;;;;0.40;0.40;;;;;;;;;;5080940;28;20178;-86
2023/04/10 13:45:03;;;;;;;0.40;0.40;;;;;;;;;;5082483;28;20217;-86
2023/04/10 13:47:29;;;;;;;0.37;0.37;;;;;;;;;;5083559;28;20186;-87
2023/04/10 13:49:55;;;;;;;0.40;0.40;;;;;;;;;;5083701;28;20174;-86
2023/04/10 13:52:21;;;;;;;0.40;0.40;;;;;;;;;;5079998;28;20257;-86
2023/04/10 13:54:47;;;;;;;0.30;0.30;;;;;;;;;;5078660;28;20238;-86
2023/04/10 13:57:13;;;;;;;0.30;0.30;;;;;;;;;;5081550;28;20182;-86
2023/04/10 13:59:40;;;;;;;0.30;0.30;;;;;;;;;;5079688;28;20246;-87
2023/04/10 14:02:06;;;;;;;0.30;0.30;;;;;;;;;;5060759;28;20680;-87
2023/04/10 14:04:32;;;;;;;0.30;0.30;;;;;;;;;;5079678;28;20217;-85
2023/04/10 14:06:59;;;;;;;0.50;0.50;;;;;;;;;;5081228;28;20179;-87
2023/04/10 14:09:26;;;;;;;0.30;0.30;;;;;;;;;;5081209;28;20522;-87
2023/04/10 14:11:52;;;;;;;0.30;0.30;;;;;;;;;;5079901;28;20194;-86
2023/04/10 14:14:18;;;;;;;0.30;0.30;;;;;;;;;;5079664;28;20194;-86
2023/04/10 14:16:44;;;;;;;0.40;0.40;;;;;;;;;;5081732;28;20174;-87
2023/04/10 14:19:10;;;;;;;0.40;0.40;;;;;;;;;;5083092;28;20198;-86
2023/04/10 14:21:39;;;;;;;0.40;0.40;;;;;;;;;;5081219;28;20167;-87
2023/04/10 14:24:05;;;;;;;0.40;0.40;;;;;;;;;;5062939;28;20261;-87
2023/04/10 14:26:31;;;;;;;0.40;0.40;;;;;;;;;;5080484;28;20288;-86
2023/04/10 14:28:57;;;;;;;0.47;0.47;;;;;;;;;;5083534;28;20208;-87
2023/04/10 14:31:23;;;;;;;0.30;0.30;;;;;;;;;;5083378;28;20234;-86
2023/04/10 14:33:49;;;;;;;0.40;0.40;;;;;;;;;;5084483;28;20198;-85
2023/04/10 14:36:15;;;;;;;0.30;0.30;;;;;;;;;;5082561;28;20549;-86
2023/04/10 14:38:41;;;;;;;0.40;0.40;;;;;;;;;;5083925;28;20174;-86
2023/04/10 14:41:07;;;;;;;0.30;0.30;;;;;;;;;;5084711;28;20171;-87
2023/04/10 14:43:33;;;;;;;0.30;0.30;;;;;;;;;;5085916;28;20216;-86
2023/04/10 14:45:59;;;;;;;0.47;0.47;;;;;;;;;;5091752;28;20239;-85